Wetterdaten: Woche 19.08.13 - 25.08.13 (KW34)
Datum Zeit Temp. A. Feuchte A. Luftdruck Regen Wind Richtung Taupunkt Windchill Windben
19.08.2013 00:00 22,8 C 57 % 1013,1 hPa 0,0 l/m 0,0 km/h N 13,9 C 22,8 C 0,0 km/h
19.08.2013 01:00 22,7 C 57 % 1013,0 hPa 0,0 l/m 0,0 km/h N 13,7 C 22,7 C 0,0 km/h
19.08.2013 02:00 19,8 C 66 % 1013,7 hPa 0,0 l/m 0,0 km/h N 13,2 C 19,8 C 0,0 km/h
19.08.2013 03:00 19,2 C 68 % 1014,0 hPa 0,0 l/m 0,0 km/h N 13,2 C 19,2 C 0,0 km/h
19.08.2013 04:00 21,6 C 66 % 1014,1 hPa 0,0 l/m 0,0 km/h N 14,9 C 21,6 C 0,0 km/h
19.08.2013 05:00 21,5 C 66 % 1014,5 hPa 0,0 l/m 0,0 km/h N 14,9 C 21,5 C 0,0 km/h
19.08.2013 06:00 20,5 C 70 % 1015,0 hPa 0,0 l/m 0,0 km/h N 14,8 C 20,5 C 0,0 km/h
19.08.2013 07:00 21,8 C 67 % 1015,0 hPa 0,0 l/m 2,5 km/h N 15,4 C 21,8 C 12,5 km/h
19.08.2013 08:00 23,7 C 63 % 1015,0 hPa 0,0 l/m 4,6 km/h N 16,1 C 23,6 C 14,1 km/h
19.08.2013 09:00 25,4 C 58 % 1014,9 hPa 0,0 l/m 4,9 km/h N 16,5 C 25,4 C 15,3 km/h
19.08.2013 10:00 26,8 C 54 % 1014,6 hPa 0,0 l/m 3,5 km/h N 16,5 C 26,8 C 10,5 km/h
19.08.2013 11:00 28,3 C 51 % 1014,2 hPa 0,0 l/m 1,7 km/h N 17,0 C 28,3 C 8,0 km/h
19.08.2013 12:00 30,0 C 45 % 1013,5 hPa 0,0 l/m 2,3 km/h N 16,7 C 30,0 C 8,4 km/h
19.08.2013 13:00 31,5 C 43 % 1013,0 hPa 0,0 l/m 3,1 km/h N 17,3 C 31,5 C 10,9 km/h
19.08.2013 14:00 32,0 C 43 % 1012,1 hPa 0,0 l/m 3,7 km/h N 17,8 C 32,0 C 12,5 km/h
19.08.2013 15:00 31,3 C 44 % 1011,3 hPa 0,0 l/m 3,4 km/h N 17,6 C 31,3 C 14,5 km/h
19.08.2013 16:00 31,4 C 41 % 1010,3 hPa 0,0 l/m 5,6 km/h N 16,3 C 31,4 C 20,1 km/h
19.08.2013 17:00 31,2 C 40 % 1010,1 hPa 0,0 l/m 7,4 km/h N 16,0 C 31,1 C 20,5 km/h
19.08.2013 18:00 28,6 C 49 % 1011,0 hPa 0,0 l/m 9,5 km/h N 16,6 C 28,0 C 29,3 km/h
19.08.2013 19:00 22,7 C 67 % 1013,1 hPa 0,0 l/m 15,3 km/h N 16,2 C 20,5 C 35,4 km/h
19.08.2013 20:00 21,3 C 68 % 1014,4 hPa 0,0 l/m 15,4 km/h N 15,1 C 18,7 C 39,5 km/h
19.08.2013 21:00 20,7 C 72 % 1015,7 hPa 0,0 l/m 11,0 km/h N 15,4 C 19,1 C 30,6 km/h
19.08.2013 22:00 19,9 C 74 % 1016,6 hPa 0,0 l/m 10,0 km/h N 15,2 C 18,6 C 29,0 km/h
19.08.2013 23:00 18,8 C 80 % 1017,4 hPa 0,8 l/m 9,0 km/h N 15,3 C 17,8 C 25,8 km/h
20.08.2013 00:00 18,4 C 81 % 1016,8 hPa 0,5 l/m 13,8 km/h N 15,0 C 15,8 C 33,4 km/h
20.08.2013 01:00 18,3 C 76 % 1016,8 hPa 0,0 l/m 21,0 km/h N 14,0 C 13,8 C 46,3 km/h
20.08.2013 02:00 18,3 C 76 % 1017,4 hPa 0,0 l/m 16,2 km/h N 14,0 C 14,9 C 37,8 km/h
20.08.2013 03:00 18,2 C 76 % 1017,9 hPa 0,0 l/m 10,6 km/h N 13,8 C 16,4 C 26,9 km/h
20.08.2013 04:00 18,3 C 74 % 1018,7 hPa 0,0 l/m 8,6 km/h N 13,5 C 17,3 C 25,8 km/h
20.08.2013 05:00 18,0 C 74 % 1018,7 hPa 0,0 l/m 5,8 km/h N 13,3 C 17,8 C 20,1 km/h
20.08.2013 06:00 17,9 C 75 % 1019,6 hPa 0,0 l/m 8,6 km/h N 13,4 C 16,9 C 22,9 km/h
20.08.2013 07:00 17,9 C 75 % 1020,3 hPa 0,0 l/m 10,9 km/h N 13,4 C 16,0 C 28,2 km/h
20.08.2013 08:00 17,9 C 76 % 1020,8 hPa 0,0 l/m 10,9 km/h N 13,5 C 16,0 C 28,6 km/h
20.08.2013 09:00 18,5 C 73 % 1021,0 hPa 0,0 l/m 11,3 km/h N 13,5 C 16,5 C 26,2 km/h
20.08.2013 10:00 18,5 C 73 % 1021,6 hPa 0,0 l/m 13,0 km/h N 13,5 C 16,0 C 27,9 km/h
20.08.2013 11:00 18,5 C 74 % 1022,1 hPa 0,0 l/m 8,9 km/h N 13,7 C 17,4 C 24,1 km/h
20.08.2013 12:00 18,9 C 72 % 1022,5 hPa 0,0 l/m 8,5 km/h N 13,8 C 18,0 C 21,3 km/h
20.08.2013 13:00 19,4 C 71 % 1022,4 hPa 0,0 l/m 11,7 km/h N 13,9 C 17,4 C 28,2 km/h
20.08.2013 14:00 19,7 C 68 % 1022,7 hPa 0,0 l/m 11,5 km/h N 13,6 C 17,8 C 29,8 km/h
20.08.2013 15:00 19,2 C 67 % 1023,0 hPa 0,0 l/m 10,3 km/h N 12,8 C 17,6 C 27,0 km/h
20.08.2013 16:00 18,7 C 73 % 1023,3 hPa 0,0 l/m 9,7 km/h N 13,8 C 17,3 C 26,5 km/h
20.08.2013 17:00 18,4 C 72 % 1023,5 hPa 0,0 l/m 11,1 km/h N 13,1 C 16,5 C 23,7 km/h
20.08.2013 18:00 18,1 C 73 % 1023,6 hPa 0,0 l/m 8,2 km/h N 13,3 C 17,3 C 22,5 km/h
20.08.2013 19:00 17,7 C 73 % 1024,1 hPa 0,0 l/m 7,7 km/h N 12,7 C 17,1 C 22,9 km/h
20.08.2013 20:00 17,1 C 73 % 1024,8 hPa 0,0 l/m 7,7 km/h N 12,2 C 16,5 C 25,4 km/h
20.08.2013 21:00 16,8 C 73 % 1025,2 hPa 0,0 l/m 9,8 km/h N 11,9 C 15,2 C 24,5 km/h
20.08.2013 22:00 16,9 C 72 % 1025,3 hPa 0,0 l/m 10,1 km/h N 11,8 C 15,1 C 24,9 km/h
20.08.2013 23:00 16,8 C 72 % 1025,3 hPa 0,0 l/m 10,4 km/h N 11,6 C 15,0 C 25,3 km/h
21.08.2013 00:00 16,8 C 71 % 1025,0 hPa 0,0 l/m 10,4 km/h N 11,5 C 14,9 C 26,1 km/h
21.08.2013 01:00 16,5 C 72 % 1024,9 hPa 0,0 l/m 9,9 km/h N 11,4 C 14,8 C 24,1 km/h
21.08.2013 02:00 16,1 C 73 % 1024,8 hPa 0,0 l/m 9,2 km/h N 11,2 C 14,7 C 22,9 km/h
21.08.2013 03:00 15,9 C 72 % 1024,8 hPa 0,0 l/m 10,0 km/h N 10,9 C 14,2 C 25,8 km/h
21.08.2013 04:00 15,6 C 74 % 1025,0 hPa 0,0 l/m 8,7 km/h N 10,9 C 14,4 C 23,7 km/h
21.08.2013 05:00 15,3 C 74 % 1025,3 hPa 0,0 l/m 6,8 km/h N 10,7 C 14,9 C 18,9 km/h
21.08.2013 06:00 14,9 C 75 % 1025,4 hPa 0,0 l/m 5,8 km/h N 10,5 C 14,8 C 18,1 km/h
21.08.2013 07:00 14,9 C 75 % 1025,5 hPa 0,0 l/m 6,2 km/h N 10,6 C 14,8 C 18,5 km/h
21.08.2013 08:00 15,6 C 74 % 1025,6 hPa 0,0 l/m 7,4 km/h N 11,0 C 15,0 C 21,3 km/h
21.08.2013 09:00 17,1 C 70 % 1025,3 hPa 0,0 l/m 8,6 km/h N 11,7 C 16,1 C 21,3 km/h
21.08.2013 10:00 17,9 C 69 % 1025,0 hPa 0,0 l/m 8,0 km/h N 12,1 C 17,2 C 21,3 km/h
21.08.2013 11:00 19,8 C 64 % 1024,5 hPa 0,0 l/m 7,5 km/h N 12,8 C 19,3 C 20,5 km/h
21.08.2013 12:00 19,9 C 63 % 1024,3 hPa 0,0 l/m 8,5 km/h N 12,5 C 19,1 C 22,5 km/h
21.08.2013 13:00 20,9 C 60 % 1023,9 hPa 0,0 l/m 8,4 km/h N 12,8 C 20,2 C 20,1 km/h
21.08.2013 14:00 21,9 C 56 % 1023,3 hPa 0,0 l/m 8,2 km/h N 12,7 C 21,3 C 22,5 km/h
21.08.2013 15:00 21,9 C 54 % 1022,8 hPa 0,0 l/m 8,1 km/h N 12,0 C 21,3 C 20,5 km/h
21.08.2013 16:00 22,3 C 53 % 1022,5 hPa 0,0 l/m 6,8 km/h N 12,3 C 22,1 C 18,1 km/h
21.08.2013 17:00 22,1 C 52 % 1022,4 hPa 0,0 l/m 6,2 km/h N 11,8 C 22,0 C 17,7 km/h
21.08.2013 18:00 21,6 C 52 % 1022,0 hPa 0,0 l/m 4,5 km/h N 11,3 C 21,6 C 16,1 km/h
21.08.2013 19:00 20,8 C 56 % 1021,9 hPa 0,0 l/m 2,3 km/h N 11,6 C 20,8 C 9,3 km/h
21.08.2013 20:00 19,0 C 62 % 1022,2 hPa 0,0 l/m 0,1 km/h N 11,5 C 19,0 C 1,6 km/h
21.08.2013 21:00 16,8 C 69 % 1022,5 hPa 0,0 l/m 0,0 km/h N 11,1 C 16,8 C 0,4 km/h
21.08.2013 22:00 15,5 C 73 % 1022,2 hPa 0,0 l/m 0,0 km/h N 10,7 C 15,5 C 0,0 km/h
21.08.2013 23:00 14,6 C 76 % 1022,2 hPa 0,0 l/m 0,0 km/h N 10,5 C 14,6 C 0,0 km/h
22.08.2013 00:00 13,9 C 79 % 1022,3 hPa 0,0 l/m 0,0 km/h N 10,2 C 13,9 C 0,4 km/h
22.08.2013 01:00 13,3 C 80 % 1022,1 hPa 0,0 l/m 0,0 km/h N 9,9 C 13,3 C 0,0 km/h
22.08.2013 02:00 12,6 C 82 % 1021,9 hPa 0,0 l/m 0,0 km/h N 9,5 C 12,6 C 0,8 km/h
22.08.2013 03:00 12,3 C 83 % 1021,5 hPa 0,0 l/m 0,2 km/h N 9,5 C 12,3 C 2,0 km/h
22.08.2013 04:00 11,9 C 83 % 1021,2 hPa 0,0 l/m 0,0 km/h N 9,1 C 11,9 C 0,8 km/h
22.08.2013 05:00 11,5 C 83 % 1021,1 hPa 0,0 l/m 0,0 km/h N 8,7 C 11,5 C 0,0 km/h
22.08.2013 06:00 11,3 C 83 % 1021,0 hPa 0,0 l/m 0,0 km/h N 8,4 C 11,3 C 0,8 km/h
22.08.2013 07:00 12,4 C 81 % 1021,1 hPa 0,0 l/m 0,2 km/h N 9,2 C 12,4 C 2,8 km/h
22.08.2013 08:00 15,2 C 80 % 1021,0 hPa 0,0 l/m 1,6 km/h N 11,8 C 15,2 C 7,3 km/h
22.08.2013 09:00 17,9 C 71 % 1020,7 hPa 0,0 l/m 2,9 km/h N 12,5 C 17,9 C 10,1 km/h
22.08.2013 10:00 19,1 C 65 % 1020,6 hPa 0,0 l/m 2,4 km/h N 12,3 C 19,1 C 8,9 km/h
22.08.2013 11:00 20,8 C 57 % 1020,4 hPa 0,0 l/m 3,4 km/h N 12,0 C 20,8 C 12,5 km/h
22.08.2013 12:00 21,9 C 53 % 1020,0 hPa 0,0 l/m 4,1 km/h N 11,7 C 21,9 C 11,7 km/h
22.08.2013 13:00 22,7 C 48 % 1019,6 hPa 0,0 l/m 4,4 km/h N 11,0 C 22,7 C 16,5 km/h
22.08.2013 14:00 23,5 C 47 % 1019,1 hPa 0,0 l/m 3,6 km/h N 11,5 C 23,5 C 13,7 km/h
22.08.2013 15:00 23,2 C 47 % 1018,6 hPa 0,0 l/m 4,3 km/h N 11,1 C 23,2 C 12,1 km/h
22.08.2013 16:00 23,3 C 47 % 1018,2 hPa 0,0 l/m 2,7 km/h N 11,5 C 23,3 C 11,7 km/h
22.08.2013 17:00 23,3 C 46 % 1017,8 hPa 0,0 l/m 3,4 km/h N 11,1 C 23,3 C 12,9 km/h
22.08.2013 18:00 22,9 C 48 % 1017,6 hPa 0,0 l/m 2,8 km/h N 11,1 C 22,9 C 10,1 km/h
22.08.2013 19:00 21,9 C 49 % 1017,7 hPa 0,0 l/m 2,8 km/h N 10,6 C 21,9 C 10,5 km/h
22.08.2013 20:00 20,5 C 54 % 1018,0 hPa 0,0 l/m 1,1 km/h N 10,7 C 20,5 C 7,3 km/h
22.08.2013 21:00 18,5 C 59 % 1018,5 hPa 0,0 l/m 0,2 km/h N 10,4 C 18,5 C 3,2 km/h
22.08.2013 22:00 17,2 C 64 % 1018,8 hPa 0,0 l/m 0,2 km/h N 10,4 C 17,2 C 2,4 km/h
22.08.2013 23:00 16,0 C 68 % 1018,9 hPa 0,0 l/m 0,0 km/h N 10,1 C 16,0 C 0,4 km/h
23.08.2013 00:00 14,3 C 74 % 1018,8 hPa 0,0 l/m 0,0 km/h N 9,7 C 14,3 C 0,0 km/h
23.08.2013 01:00 13,5 C 78 % 1018,5 hPa 0,0 l/m 0,0 km/h N 9,7 C 13,5 C 1,2 km/h
23.08.2013 02:00 13,2 C 79 % 1018,2 hPa 0,0 l/m 0,1 km/h N 9,6 C 13,2 C 1,2 km/h
23.08.2013 03:00 12,8 C 80 % 1018,0 hPa 0,0 l/m 0,1 km/h N 9,4 C 12,8 C 2,8 km/h
23.08.2013 04:00 12,5 C 81 % 1017,9 hPa 0,0 l/m 0,1 km/h N 9,2 C 12,5 C 2,0 km/h
23.08.2013 05:00 11,9 C 82 % 1017,8 hPa 0,0 l/m 0,0 km/h N 8,8 C 11,9 C 0,0 km/h
23.08.2013 06:00 11,4 C 83 % 1017,8 hPa 0,0 l/m 0,0 km/h N 8,6 C 11,4 C 0,4 km/h
23.08.2013 07:00 12,2 C 82 % 1018,1 hPa 0,0 l/m 0,0 km/h N 9,1 C 12,2 C 0,8 km/h
23.08.2013 08:00 15,3 C 79 % 1018,0 hPa 0,0 l/m 0,4 km/h N 11,7 C 15,3 C 4,4 km/h
23.08.2013 09:00 18,0 C 68 % 1017,8 hPa 0,0 l/m 1,1 km/h N 12,1 C 18,0 C 5,2 km/h
23.08.2013 10:00 20,4 C 62 % 1017,6 hPa 0,0 l/m 1,1 km/h N 12,7 C 20,4 C 6,0 km/h
23.08.2013 11:00 22,7 C 54 % 1017,3 hPa 0,0 l/m 1,5 km/h N 12,9 C 22,7 C 7,2 km/h
23.08.2013 12:00 23,5 C 54 % 1017,0 hPa 0,0 l/m 2,3 km/h N 13,5 C 23,5 C 8,0 km/h
23.08.2013 13:00 25,2 C 48 % 1016,5 hPa 0,0 l/m 2,3 km/h N 13,5 C 25,2 C 10,9 km/h
23.08.2013 14:00 24,8 C 50 % 1016,2 hPa 0,0 l/m 2,0 km/h N 13,6 C 24,8 C 8,4 km/h
23.08.2013 15:00 24,8 C 51 % 1015,7 hPa 0,0 l/m 1,6 km/h N 14,0 C 24,8 C 7,2 km/h
23.08.2013 16:00 24,8 C 52 % 1015,3 hPa 0,0 l/m 0,9 km/h N 14,2 C 24,8 C 6,4 km/h
23.08.2013 17:00 24,8 C 52 % 1015,0 hPa 0,0 l/m 0,6 km/h N 14,2 C 24,8 C 8,9 km/h
23.08.2013 18:00 23,9 C 53 % 1014,8 hPa 0,0 l/m 0,8 km/h N 13,6 C 23,9 C 7,2 km/h
23.08.2013 19:00 23,0 C 54 % 1014,7 hPa 0,0 l/m 0,0 km/h N 13,2 C 23,0 C 5,6 km/h
23.08.2013 20:00 22,5 C 55 % 1015,1 hPa 0,0 l/m 0,0 km/h N 13,0 C 22,5 C 6,4 km/h
23.08.2013 21:00 21,8 C 59 % 1015,5 hPa 0,0 l/m 0,0 km/h N 13,3 C 21,8 C 5,6 km/h
23.08.2013 22:00 20,1 C 65 % 1015,5 hPa 0,0 l/m 0,0 km/h N 13,2 C 20,1 C 3,2 km/h
23.08.2013 23:00 18,9 C 68 % 1015,7 hPa 0,0 l/m 0,0 km/h N 12,7 C 18,9 C 2,4 km/h
24.08.2013 00:00 17,8 C 72 % 1015,6 hPa 0,0 l/m 0,0 km/h N 12,5 C 17,8 C 1,6 km/h
24.08.2013 01:00 17,4 C 72 % 1015,3 hPa 0,0 l/m 0,0 km/h N 12,2 C 17,4 C 1,6 km/h
24.08.2013 02:00 17,3 C 72 % 1015,0 hPa 0,0 l/m 0,0 km/h N 12,2 C 17,3 C 1,6 km/h
24.08.2013 03:00 17,2 C 73 % 1015,0 hPa 0,0 l/m 0,0 km/h N 12,3 C 17,2 C 1,6 km/h
24.08.2013 04:00 17,0 C 76 % 1015,1 hPa 0,0 l/m 0,8 km/h N 12,6 C 17,0 C 5,7 km/h
24.08.2013 05:00 16,8 C 79 % 1015,2 hPa 0,0 l/m 3,2 km/h N 13,1 C 16,8 C 13,7 km/h
24.08.2013 06:00 16,0 C 82 % 1015,2 hPa 1,8 l/m 0,8 km/h N 13,0 C 16,0 C 5,6 km/h
24.08.2013 07:00 15,7 C 81 % 1015,0 hPa 2,3 l/m 0,0 km/h N 12,4 C 15,7 C 2,4 km/h
24.08.2013 08:00 15,8 C 80 % 1015,3 hPa 0,0 l/m 0,0 km/h N 12,3 C 15,8 C 1,6 km/h
24.08.2013 09:00 16,1 C 79 % 1015,3 hPa 0,5 l/m 0,0 km/h N 12,5 C 16,1 C 4,0 km/h
24.08.2013 10:00 16,3 C 78 % 1015,4 hPa 1,3 l/m 0,0 km/h N 12,5 C 16,3 C 3,2 km/h
24.08.2013 11:00 16,5 C 79 % 1015,5 hPa 0,5 l/m 0,0 km/h N 12,7 C 16,5 C 1,6 km/h
24.08.2013 12:00 16,5 C 79 % 1015,3 hPa 1,3 l/m 0,0 km/h N 12,9 C 16,5 C 0,0 km/h
24.08.2013 13:00 16,8 C 79 % 1015,2 hPa 0,5 l/m 0,0 km/h N 13,1 C 16,8 C 2,4 km/h
24.08.2013 14:00 17,0 C 80 % 1015,0 hPa 0,0 l/m 0,0 km/h N 13,5 C 17,0 C 3,2 km/h
24.08.2013 15:00 17,5 C 82 % 1014,8 hPa 0,0 l/m 0,0 km/h N 14,2 C 17,5 C 1,6 km/h
24.08.2013 16:00 18,3 C 82 % 1014,4 hPa 0,0 l/m 0,0 km/h N 15,1 C 18,3 C 1,6 km/h
24.08.2013 17:00 19,1 C 79 % 1013,8 hPa 0,0 l/m 0,0 km/h N 15,3 C 19,1 C 4,0 km/h
24.08.2013 18:00 19,0 C 79 % 1013,2 hPa 0,0 l/m 0,0 km/h N 15,3 C 19,0 C 4,8 km/h
24.08.2013 19:00 18,6 C 81 % 1012,8 hPa 0,0 l/m 0,0 km/h N 15,3 C 18,6 C 4,0 km/h
24.08.2013 20:00 17,5 C 82 % 1012,9 hPa 0,3 l/m 0,0 km/h N 14,4 C 17,5 C 0,0 km/h
24.08.2013 21:00 16,8 C 83 % 1012,8 hPa 0,0 l/m 0,0 km/h N 13,8 C 16,8 C 0,0 km/h
24.08.2013 22:00 15,6 C 83 % 1012,7 hPa 0,0 l/m 0,0 km/h N 12,7 C 15,6 C 0,0 km/h
24.08.2013 23:00 14,8 C 82 % 1012,5 hPa 0,0 l/m 0,0 km/h N 11,9 C 14,8 C 0,0 km/h
25.08.2013 00:00 14,2 C 82 % 1012,3 hPa 0,0 l/m 0,0 km/h N 11,1 C 14,2 C 0,0 km/h
25.08.2013 01:00 14,2 C 80 % 1012,1 hPa 0,0 l/m 0,0 km/h N 10,8 C 14,2 C 0,0 km/h
25.08.2013 02:00 14,2 C 79 % 1011,7 hPa 0,0 l/m 0,0 km/h N 10,6 C 14,2 C 0,0 km/h
25.08.2013 03:00 14,2 C 79 % 1011,4 hPa 0,0 l/m 0,0 km/h N 10,5 C 14,2 C 0,0 km/h
25.08.2013 04:00 14,4 C 78 % 1011,1 hPa 0,0 l/m 0,0 km/h N 10,6 C 14,4 C 0,0 km/h
25.08.2013 05:00 13,9 C 78 % 1010,8 hPa 0,0 l/m 0,0 km/h N 10,0 C 13,9 C 0,0 km/h
25.08.2013 06:00 14,4 C 76 % 1010,7 hPa 0,0 l/m 0,0 km/h N 10,3 C 14,4 C 0,8 km/h
25.08.2013 07:00 14,8 C 76 % 1010,7 hPa 0,0 l/m 0,0 km/h N 10,5 C 14,8 C 0,4 km/h
25.08.2013 08:00 15,7 C 74 % 1010,5 hPa 0,0 l/m 0,2 km/h N 11,1 C 15,7 C 2,8 km/h
25.08.2013 09:00 17,1 C 76 % 1010,5 hPa 0,0 l/m 1,6 km/h N 12,8 C 17,1 C 8,5 km/h
25.08.2013 10:00 18,2 C 82 % 1010,4 hPa 0,0 l/m 3,9 km/h N 15,0 C 18,2 C 13,7 km/h
25.08.2013 11:00 18,7 C 77 % 1010,4 hPa 0,0 l/m 6,6 km/h N 14,7 C 18,5 C 17,3 km/h
25.08.2013 12:00 18,8 C 74 % 1010,6 hPa 0,0 l/m 5,3 km/h N 14,1 C 18,7 C 15,7 km/h
25.08.2013 13:00 18,4 C 78 % 1010,6 hPa 0,3 l/m 2,1 km/h N 14,4 C 18,4 C 8,4 km/h
25.08.2013 14:00 17,3 C 83 % 1010,4 hPa 1,0 l/m 0,6 km/h N 14,3 C 17,3 C 6,0 km/h
25.08.2013 15:00 16,6 C 82 % 1010,4 hPa 0,8 l/m 0,4 km/h N 13,5 C 16,6 C 4,8 km/h
25.08.2013 16:00 16,5 C 82 % 1010,4 hPa 0,3 l/m 0,2 km/h N 13,4 C 16,5 C 3,6 km/h
25.08.2013 17:00 16,6 C 81 % 1010,8 hPa 1,0 l/m 0,2 km/h N 13,2 C 16,6 C 3,2 km/h
25.08.2013 18:00 16,7 C 80 % 1010,9 hPa 0,5 l/m 0,0 km/h N 13,2 C 16,7 C 0,0 km/h
25.08.2013 19:00 16,1 C 80 % 1011,3 hPa 2,3 l/m 0,1 km/h N 12,7 C 16,1 C 3,6 km/h
25.08.2013 20:00 15,5 C 80 % 1011,5 hPa 0,5 l/m 0,0 km/h N 12,1 C 15,5 C 0,4 km/h
25.08.2013 21:00 15,3 C 79 % 1011,6 hPa 0,5 l/m 0,0 km/h N 11,7 C 15,3 C 1,2 km/h
25.08.2013 22:00 15,3 C 78 % 1011,7 hPa 0,0 l/m 0,0 km/h N 11,5 C 15,3 C 0,0 km/h
25.08.2013 23:00 15,3 C 78 % 1011,8 hPa 0,3 l/m 0,0 km/h N 11,4 C 15,3 C 0,0 km/h
Min-Datum _ 22.08.13 19.08.13 19.08.13 - 19.08.13 - 22.08.13 22.08.13 19.08.13
_ Min-Zeit 06:15 16:45 16:45 - 00:00 - 06:30 06:00 00:00
Minimum _ 11,2 C 39 % 1010,0 hPa - 0,0 km/h - 8,3 C 11,2 C 0,0 km/h
Max-Datum _ 19.08.13 22.08.13 21.08.13 24.08.13 20.08.13 - 19.08.13 19.08.13 20.08.13
_ Max-Zeit 14:30 03:15 08:00 07:00 01:15 - 14:15 14:15 01:00
Maximum _ 32,3 C 83 % 1025,6 hPa 2,3 l/m 22,4 km/h
N
- 18,4 C 32,2 C 49,9 km/h
N
Durchschnitt _ 18,7 C 69 % 1017,3 hPa #17,4 l/m 3,6 km/h N 12,6 C 18,3 C 10,9 km/h